sensor_id;sensor_type;location;lat;lon;timestamp;P1;durP1;ratioP1;P2;durP2;ratioP2
14613;SDS011;7393;51.446;6.800;2023-09-08T00:00:47;6.57;;;4.63;;
14613;SDS011;7393;51.446;6.800;2023-09-08T00:03:14;5.23;;;4.00;;
14613;SDS011;7393;51.446;6.800;2023-09-08T00:05:41;5.50;;;4.73;;
14613;SDS011;7393;51.446;6.800;2023-09-08T00:08:08;5.40;;;4.40;;
14613;SDS011;7393;51.446;6.800;2023-09-08T00:10:36;7.93;;;4.57;;
14613;SDS011;7393;51.446;6.800;2023-09-08T00:13:03;7.23;;;4.80;;
14613;SDS011;7393;51.446;6.800;2023-09-08T00:15:30;6.03;;;4.37;;
14613;SDS011;7393;51.446;6.800;2023-09-08T00:18:00;8.33;;;4.70;;
14613;SDS011;7393;51.446;6.800;2023-09-08T00:20:26;6.23;;;4.50;;
14613;SDS011;7393;51.446;6.800;2023-09-08T00:22:53;5.07;;;4.13;;
14613;SDS011;7393;51.446;6.800;2023-09-08T00:25:20;4.93;;;4.43;;
14613;SDS011;7393;51.446;6.800;2023-09-08T00:27:48;5.57;;;4.40;;
14613;SDS011;7393;51.446;6.800;2023-09-08T00:30:15;7.37;;;4.77;;
14613;SDS011;7393;51.446;6.800;2023-09-08T00:32:42;4.80;;;4.10;;
14613;SDS011;7393;51.446;6.800;2023-09-08T00:35:10;7.37;;;4.47;;
14613;SDS011;7393;51.446;6.800;2023-09-08T00:37:38;4.73;;;4.23;;
14613;SDS011;7393;51.446;6.800;2023-09-08T00:40:06;6.07;;;4.50;;
14613;SDS011;7393;51.446;6.800;2023-09-08T00:42:34;7.60;;;4.80;;
14613;SDS011;7393;51.446;6.800;2023-09-08T00:45:02;5.37;;;4.23;;
14613;SDS011;7393;51.446;6.800;2023-09-08T00:47:30;4.97;;;4.20;;
14613;SDS011;7393;51.446;6.800;2023-09-08T00:49:57;5.37;;;4.50;;
14613;SDS011;7393;51.446;6.800;2023-09-08T00:52:23;12.73;;;4.80;;
14613;SDS011;7393;51.446;6.800;2023-09-08T00:54:56;4.90;;;4.40;;
14613;SDS011;7393;51.446;6.800;2023-09-08T00:57:23;4.63;;;4.23;;
14613;SDS011;7393;51.446;6.800;2023-09-08T00:59:49;5.00;;;4.53;;
14613;SDS011;7393;51.446;6.800;2023-09-08T01:02:18;6.30;;;4.63;;
14613;SDS011;7393;51.446;6.800;2023-09-08T01:04:46;8.00;;;4.40;;
14613;SDS011;7393;51.446;6.800;2023-09-08T01:07:13;6.70;;;4.07;;
14613;SDS011;7393;51.446;6.800;2023-09-08T01:09:41;5.27;;;4.50;;
14613;SDS011;7393;51.446;6.800;2023-09-08T01:12:08;6.37;;;4.50;;
14613;SDS011;7393;51.446;6.800;2023-09-08T01:14:35;4.80;;;4.30;;
14613;SDS011;7393;51.446;6.800;2023-09-08T01:17:02;5.03;;;4.43;;
14613;SDS011;7393;51.446;6.800;2023-09-08T01:19:30;5.00;;;4.50;;
14613;SDS011;7393;51.446;6.800;2023-09-08T01:25:04;5.23;;;4.53;;
14613;SDS011;7393;51.446;6.800;2023-09-08T01:27:45;4.63;;;4.20;;
14613;SDS011;7393;51.446;6.800;2023-09-08T01:30:13;7.40;;;4.00;;
14613;SDS011;7393;51.446;6.800;2023-09-08T01:32:41;5.57;;;4.57;;
14613;SDS011;7393;51.446;6.800;2023-09-08T01:35:09;5.53;;;4.10;;
14613;SDS011;7393;51.446;6.800;2023-09-08T01:37:39;6.83;;;4.60;;
14613;SDS011;7393;51.446;6.800;2023-09-08T01:40:08;6.67;;;4.73;;
14613;SDS011;7393;51.446;6.800;2023-09-08T01:42:36;6.90;;;4.27;;
14613;SDS011;7393;51.446;6.800;2023-09-08T01:45:03;5.53;;;4.50;;
14613;SDS011;7393;51.446;6.800;2023-09-08T01:47:31;4.77;;;4.27;;
14613;SDS011;7393;51.446;6.800;2023-09-08T01:49:58;5.73;;;4.10;;
14613;SDS011;7393;51.446;6.800;2023-09-08T01:52:25;6.03;;;4.60;;
14613;SDS011;7393;51.446;6.800;2023-09-08T01:54:52;7.10;;;5.57;;
14613;SDS011;7393;51.446;6.800;2023-09-08T01:57:20;8.67;;;5.97;;
14613;SDS011;7393;51.446;6.800;2023-09-08T01:59:46;8.80;;;5.80;;
14613;SDS011;7393;51.446;6.800;2023-09-08T02:02:14;8.70;;;5.83;;
14613;SDS011;7393;51.446;6.800;2023-09-08T02:04:40;7.40;;;5.50;;
14613;SDS011;7393;51.446;6.800;2023-09-08T02:07:07;8.33;;;5.50;;
14613;SDS011;7393;51.446;6.800;2023-09-08T02:09:34;8.60;;;5.97;;
14613;SDS011;7393;51.446;6.800;2023-09-08T02:12:02;7.57;;;5.40;;
14613;SDS011;7393;51.446;6.800;2023-09-08T02:14:31;7.33;;;4.90;;
14613;SDS011;7393;51.446;6.800;2023-09-08T02:16:58;6.13;;;5.07;;
14613;SDS011;7393;51.446;6.800;2023-09-08T02:19:25;5.27;;;4.53;;
14613;SDS011;7393;51.446;6.800;2023-09-08T02:21:51;6.77;;;5.17;;
14613;SDS011;7393;51.446;6.800;2023-09-08T02:24:18;6.30;;;5.00;;
14613;SDS011;7393;51.446;6.800;2023-09-08T02:26:45;7.27;;;5.00;;
14613;SDS011;7393;51.446;6.800;2023-09-08T02:29:12;5.93;;;5.00;;
14613;SDS011;7393;51.446;6.800;2023-09-08T02:31:40;6.43;;;4.87;;
14613;SDS011;7393;51.446;6.800;2023-09-08T02:34:07;5.77;;;4.90;;
14613;SDS011;7393;51.446;6.800;2023-09-08T02:36:33;5.60;;;5.00;;
14613;SDS011;7393;51.446;6.800;2023-09-08T02:39:00;6.80;;;5.03;;
14613;SDS011;7393;51.446;6.800;2023-09-08T02:41:27;5.20;;;4.70;;
14613;SDS011;7393;51.446;6.800;2023-09-08T02:43:54;6.30;;;4.93;;
14613;SDS011;7393;51.446;6.800;2023-09-08T02:46:21;5.17;;;4.67;;
14613;SDS011;7393;51.446;6.800;2023-09-08T02:48:49;5.60;;;4.83;;
14613;SDS011;7393;51.446;6.800;2023-09-08T02:51:16;7.00;;;5.30;;
14613;SDS011;7393;51.446;6.800;2023-09-08T02:53:42;5.17;;;4.40;;
14613;SDS011;7393;51.446;6.800;2023-09-08T02:56:09;7.13;;;5.43;;
14613;SDS011;7393;51.446;6.800;2023-09-08T02:58:36;8.83;;;5.07;;
14613;SDS011;7393;51.446;6.800;2023-09-08T03:01:10;5.87;;;5.17;;
14613;SDS011;7393;51.446;6.800;2023-09-08T03:03:38;6.03;;;5.43;;
14613;SDS011;7393;51.446;6.800;2023-09-08T03:06:07;9.47;;;5.10;;
14613;SDS011;7393;51.446;6.800;2023-09-08T03:08:34;5.33;;;4.60;;
14613;SDS011;7393;51.446;6.800;2023-09-08T03:11:02;6.90;;;4.97;;
14613;SDS011;7393;51.446;6.800;2023-09-08T03:13:29;5.77;;;4.97;;
14613;SDS011;7393;51.446;6.800;2023-09-08T03:15:56;5.83;;;5.23;;
14613;SDS011;7393;51.446;6.800;2023-09-08T03:18:23;5.47;;;4.80;;
14613;SDS011;7393;51.446;6.800;2023-09-08T03:20:49;8.90;;;5.57;;
14613;SDS011;7393;51.446;6.800;2023-09-08T03:23:18;7.93;;;5.30;;
14613;SDS011;7393;51.446;6.800;2023-09-08T03:25:45;7.73;;;5.03;;
14613;SDS011;7393;51.446;6.800;2023-09-08T03:28:12;7.23;;;4.93;;
14613;SDS011;7393;51.446;6.800;2023-09-08T03:30:38;6.77;;;5.07;;
14613;SDS011;7393;51.446;6.800;2023-09-08T03:33:05;7.40;;;4.70;;
14613;SDS011;7393;51.446;6.800;2023-09-08T03:35:32;6.13;;;4.57;;
14613;SDS011;7393;51.446;6.800;2023-09-08T03:37:59;7.23;;;5.20;;
14613;SDS011;7393;51.446;6.800;2023-09-08T03:40:27;5.27;;;4.77;;
14613;SDS011;7393;51.446;6.800;2023-09-08T03:42:54;6.53;;;5.00;;
14613;SDS011;7393;51.446;6.800;2023-09-08T03:45:20;8.23;;;5.10;;
14613;SDS011;7393;51.446;6.800;2023-09-08T03:47:47;6.70;;;5.47;;
14613;SDS011;7393;51.446;6.800;2023-09-08T03:50:14;7.00;;;5.07;;
14613;SDS011;7393;51.446;6.800;2023-09-08T03:52:41;5.27;;;4.77;;
14613;SDS011;7393;51.446;6.800;2023-09-08T03:55:07;5.27;;;4.70;;
14613;SDS011;7393;51.446;6.800;2023-09-08T03:57:36;6.07;;;4.67;;
14613;SDS011;7393;51.446;6.800;2023-09-08T04:00:03;5.60;;;4.90;;
14613;SDS011;7393;51.446;6.800;2023-09-08T04:02:31;7.33;;;4.73;;
14613;SDS011;7393;51.446;6.800;2023-09-08T04:04:58;5.07;;;4.57;;
14613;SDS011;7393;51.446;6.800;2023-09-08T04:07:25;8.17;;;4.70;;
14613;SDS011;7393;51.446;6.800;2023-09-08T04:09:52;6.27;;;4.90;;
14613;SDS011;7393;51.446;6.800;2023-09-08T04:12:19;7.67;;;5.23;;
14613;SDS011;7393;51.446;6.800;2023-09-08T04:14:47;9.03;;;5.10;;
14613;SDS011;7393;51.446;6.800;2023-09-08T04:17:14;9.20;;;5.37;;
14613;SDS011;7393;51.446;6.800;2023-09-08T04:19:41;6.80;;;4.87;;
14613;SDS011;7393;51.446;6.800;2023-09-08T04:22:07;8.00;;;5.33;;
14613;SDS011;7393;51.446;6.800;2023-09-08T04:24:34;6.43;;;5.40;;
14613;SDS011;7393;51.446;6.800;2023-09-08T04:27:02;8.13;;;5.53;;
14613;SDS011;7393;51.446;6.800;2023-09-08T04:29:29;7.47;;;5.07;;
14613;SDS011;7393;51.446;6.800;2023-09-08T04:31:57;6.37;;;5.23;;
14613;SDS011;7393;51.446;6.800;2023-09-08T04:34:24;7.00;;;5.50;;
14613;SDS011;7393;51.446;6.800;2023-09-08T04:36:51;6.27;;;5.27;;
14613;SDS011;7393;51.446;6.800;2023-09-08T04:39:18;7.17;;;5.33;;
14613;SDS011;7393;51.446;6.800;2023-09-08T04:41:45;7.40;;;5.40;;
14613;SDS011;7393;51.446;6.800;2023-09-08T04:44:11;7.20;;;5.30;;
14613;SDS011;7393;51.446;6.800;2023-09-08T04:46:38;5.63;;;4.80;;
14613;SDS011;7393;51.446;6.800;2023-09-08T04:49:06;6.57;;;5.13;;
14613;SDS011;7393;51.446;6.800;2023-09-08T04:51:33;9.13;;;5.20;;
14613;SDS011;7393;51.446;6.800;2023-09-08T04:54:00;7.33;;;5.13;;
14613;SDS011;7393;51.446;6.800;2023-09-08T04:56:26;7.00;;;5.10;;
14613;SDS011;7393;51.446;6.800;2023-09-08T04:58:53;7.17;;;4.77;;
14613;SDS011;7393;51.446;6.800;2023-09-08T05:01:21;6.37;;;4.60;;
14613;SDS011;7393;51.446;6.800;2023-09-08T05:03:47;10.37;;;5.00;;
14613;SDS011;7393;51.446;6.800;2023-09-08T05:06:16;6.93;;;4.77;;
14613;SDS011;7393;51.446;6.800;2023-09-08T05:08:42;5.93;;;4.70;;
14613;SDS011;7393;51.446;6.800;2023-09-08T05:11:09;7.20;;;5.40;;
14613;SDS011;7393;51.446;6.800;2023-09-08T05:13:36;9.87;;;5.70;;
14613;SDS011;7393;51.446;6.800;2023-09-08T05:16:03;7.13;;;5.40;;
14613;SDS011;7393;51.446;6.800;2023-09-08T05:18:37;8.60;;;5.27;;
14613;SDS011;7393;51.446;6.800;2023-09-08T05:21:04;9.00;;;5.20;;
14613;SDS011;7393;51.446;6.800;2023-09-08T05:23:32;6.47;;;5.17;;
14613;SDS011;7393;51.446;6.800;2023-09-08T05:25:59;7.43;;;5.00;;
14613;SDS011;7393;51.446;6.800;2023-09-08T05:28:26;8.33;;;5.73;;
14613;SDS011;7393;51.446;6.800;2023-09-08T05:30:53;8.07;;;5.67;;
14613;SDS011;7393;51.446;6.800;2023-09-08T05:33:20;6.43;;;5.40;;
14613;SDS011;7393;51.446;6.800;2023-09-08T05:35:47;5.53;;;5.03;;
14613;SDS011;7393;51.446;6.800;2023-09-08T05:38:13;7.17;;;5.23;;
14613;SDS011;7393;51.446;6.800;2023-09-08T05:40:42;6.33;;;5.33;;
14613;SDS011;7393;51.446;6.800;2023-09-08T05:43:09;7.17;;;5.60;;
14613;SDS011;7393;51.446;6.800;2023-09-08T05:45:36;6.77;;;5.00;;
14613;SDS011;7393;51.446;6.800;2023-09-08T05:48:03;6.30;;;5.03;;
14613;SDS011;7393;51.446;6.800;2023-09-08T05:50:30;8.27;;;5.33;;
14613;SDS011;7393;51.446;6.800;2023-09-08T05:52:57;9.37;;;5.27;;
14613;SDS011;7393;51.446;6.800;2023-09-08T05:55:23;8.67;;;5.30;;
14613;SDS011;7393;51.446;6.800;2023-09-08T05:57:52;9.93;;;4.87;;
14613;SDS011;7393;51.446;6.800;2023-09-08T06:00:18;7.57;;;4.83;;
14613;SDS011;7393;51.446;6.800;2023-09-08T06:02:45;9.07;;;5.70;;
14613;SDS011;7393;51.446;6.800;2023-09-08T06:05:12;8.23;;;5.37;;
14613;SDS011;7393;51.446;6.800;2023-09-08T06:07:39;8.87;;;5.43;;
14613;SDS011;7393;51.446;6.800;2023-09-08T06:10:06;7.77;;;5.47;;
14613;SDS011;7393;51.446;6.800;2023-09-08T06:12:33;7.33;;;5.40;;
14613;SDS011;7393;51.446;6.800;2023-09-08T06:15:02;9.00;;;6.17;;
14613;SDS011;7393;51.446;6.800;2023-09-08T06:17:30;9.77;;;6.07;;
14613;SDS011;7393;51.446;6.800;2023-09-08T06:19:57;10.07;;;6.40;;
14613;SDS011;7393;51.446;6.800;2023-09-08T06:22:23;9.90;;;5.97;;
14613;SDS011;7393;51.446;6.800;2023-09-08T06:24:50;8.03;;;6.40;;
14613;SDS011;7393;51.446;6.800;2023-09-08T06:27:17;8.17;;;6.30;;
14613;SDS011;7393;51.446;6.800;2023-09-08T06:29:44;10.90;;;6.77;;
14613;SDS011;7393;51.446;6.800;2023-09-08T06:32:12;9.10;;;7.57;;
14613;SDS011;7393;51.446;6.800;2023-09-08T06:34:39;10.00;;;7.47;;
14613;SDS011;7393;51.446;6.800;2023-09-08T06:37:06;10.97;;;7.50;;
14613;SDS011;7393;51.446;6.800;2023-09-08T06:39:33;11.50;;;7.57;;
14613;SDS011;7393;51.446;6.800;2023-09-08T06:42:00;9.83;;;6.97;;
14613;SDS011;7393;51.446;6.800;2023-09-08T06:44:27;11.20;;;7.77;;
14613;SDS011;7393;51.446;6.800;2023-09-08T06:46:53;10.30;;;7.70;;
14613;SDS011;7393;51.446;6.800;2023-09-08T06:49:22;11.67;;;7.60;;
14613;SDS011;7393;51.446;6.800;2023-09-08T06:51:48;9.87;;;7.40;;
14613;SDS011;7393;51.446;6.800;2023-09-08T06:54:15;11.53;;;7.90;;
14613;SDS011;7393;51.446;6.800;2023-09-08T06:56:42;11.00;;;8.00;;
14613;SDS011;7393;51.446;6.800;2023-09-08T06:59:09;10.30;;;7.63;;
14613;SDS011;7393;51.446;6.800;2023-09-08T07:01:36;10.20;;;7.50;;
14613;SDS011;7393;51.446;6.800;2023-09-08T07:04:03;9.37;;;7.27;;
14613;SDS011;7393;51.446;6.800;2023-09-08T07:06:31;9.57;;;8.00;;
14613;SDS011;7393;51.446;6.800;2023-09-08T07:08:58;11.00;;;8.17;;
14613;SDS011;7393;51.446;6.800;2023-09-08T07:11:25;11.90;;;7.83;;
14613;SDS011;7393;51.446;6.800;2023-09-08T07:13:52;12.97;;;7.77;;
14613;SDS011;7393;51.446;6.800;2023-09-08T07:16:19;17.13;;;7.57;;
14613;SDS011;7393;51.446;6.800;2023-09-08T07:18:46;10.80;;;7.37;;
14613;SDS011;7393;51.446;6.800;2023-09-08T07:21:13;10.37;;;7.10;;
14613;SDS011;7393;51.446;6.800;2023-09-08T07:23:41;12.20;;;7.97;;
14613;SDS011;7393;51.446;6.800;2023-09-08T07:26:08;8.40;;;6.50;;
14613;SDS011;7393;51.446;6.800;2023-09-08T07:28:34;9.87;;;7.40;;
14613;SDS011;7393;51.446;6.800;2023-09-08T07:31:01;11.03;;;7.27;;
14613;SDS011;7393;51.446;6.800;2023-09-08T07:33:28;8.23;;;5.50;;
14613;SDS011;7393;51.446;6.800;2023-09-08T07:35:55;10.17;;;6.00;;
14613;SDS011;7393;51.446;6.800;2023-09-08T07:38:22;8.50;;;6.10;;
14613;SDS011;7393;51.446;6.800;2023-09-08T07:40:50;12.33;;;6.43;;
14613;SDS011;7393;51.446;6.800;2023-09-08T07:43:17;9.73;;;5.97;;
14613;SDS011;7393;51.446;6.800;2023-09-08T07:45:44;13.73;;;6.57;;
14613;SDS011;7393;51.446;6.800;2023-09-08T07:48:10;7.03;;;5.80;;
14613;SDS011;7393;51.446;6.800;2023-09-08T07:50:37;10.80;;;6.20;;
14613;SDS011;7393;51.446;6.800;2023-09-08T07:53:04;8.50;;;5.20;;
14613;SDS011;7393;51.446;6.800;2023-09-08T07:55:31;6.57;;;5.00;;
14613;SDS011;7393;51.446;6.800;2023-09-08T07:58:00;7.10;;;5.33;;
14613;SDS011;7393;51.446;6.800;2023-09-08T08:00:28;9.03;;;4.97;;
14613;SDS011;7393;51.446;6.800;2023-09-08T08:02:56;8.37;;;4.10;;
14613;SDS011;7393;51.446;6.800;2023-09-08T08:05:24;7.80;;;3.97;;
14613;SDS011;7393;51.446;6.800;2023-09-08T08:07:51;5.30;;;4.07;;
14613;SDS011;7393;51.446;6.800;2023-09-08T08:10:18;7.53;;;4.87;;
14613;SDS011;7393;51.446;6.800;2023-09-08T08:12:45;5.67;;;4.10;;
14613;SDS011;7393;51.446;6.800;2023-09-08T08:15:13;5.53;;;4.00;;
14613;SDS011;7393;51.446;6.800;2023-09-08T08:17:40;5.77;;;3.97;;
14613;SDS011;7393;51.446;6.800;2023-09-08T08:20:08;4.60;;;4.00;;
14613;SDS011;7393;51.446;6.800;2023-09-08T08:22:42;5.43;;;3.60;;
14613;SDS011;7393;51.446;6.800;2023-09-08T08:25:09;6.57;;;3.80;;
14613;SDS011;7393;51.446;6.800;2023-09-08T08:27:36;8.03;;;3.83;;
14613;SDS011;7393;51.446;6.800;2023-09-08T08:30:03;7.00;;;4.30;;
14613;SDS011;7393;51.446;6.800;2023-09-08T08:32:32;7.50;;;3.87;;
14613;SDS011;7393;51.446;6.800;2023-09-08T08:34:59;5.23;;;4.00;;
14613;SDS011;7393;51.446;6.800;2023-09-08T08:37:26;6.67;;;3.60;;
14613;SDS011;7393;51.446;6.800;2023-09-08T08:39:53;5.63;;;4.30;;
14613;SDS011;7393;51.446;6.800;2023-09-08T08:42:19;5.33;;;3.97;;
14613;SDS011;7393;51.446;6.800;2023-09-08T08:44:47;4.30;;;3.60;;
14613;SDS011;7393;51.446;6.800;2023-09-08T08:47:15;4.47;;;3.90;;
14613;SDS011;7393;51.446;6.800;2023-09-08T08:49:45;6.80;;;3.90;;
14613;SDS011;7393;51.446;6.800;2023-09-08T08:52:14;8.13;;;3.50;;
14613;SDS011;7393;51.446;6.800;2023-09-08T08:54:42;5.70;;;3.47;;
14613;SDS011;7393;51.446;6.800;2023-09-08T08:57:11;6.32;;;3.58;;
14613;SDS011;7393;51.446;6.800;2023-09-08T08:59:39;7.03;;;3.50;;
14613;SDS011;7393;51.446;6.800;2023-09-08T09:02:06;6.05;;;4.28;;
14613;SDS011;7393;51.446;6.800;2023-09-08T09:04:37;4.90;;;4.03;;
14613;SDS011;7393;51.446;6.800;2023-09-08T09:07:06;5.35;;;3.33;;
14613;SDS011;7393;51.446;6.800;2023-09-08T09:09:34;4.57;;;3.80;;
14613;SDS011;7393;51.446;6.800;2023-09-08T09:12:00;4.38;;;3.70;;
14613;SDS011;7393;51.446;6.800;2023-09-08T09:14:28;4.03;;;3.63;;
14613;SDS011;7393;51.446;6.800;2023-09-08T09:16:58;6.10;;;3.80;;
14613;SDS011;7393;51.446;6.800;2023-09-08T09:19:25;4.05;;;3.42;;
14613;SDS011;7393;51.446;6.800;2023-09-08T09:21:53;6.53;;;3.58;;
14613;SDS011;7393;51.446;6.800;2023-09-08T09:24:29;6.30;;;3.55;;
14613;SDS011;7393;51.446;6.800;2023-09-08T09:26:58;5.20;;;3.60;;
14613;SDS011;7393;51.446;6.800;2023-09-08T09:29:26;3.83;;;3.20;;
14613;SDS011;7393;51.446;6.800;2023-09-08T09:31:55;4.65;;;4.10;;
14613;SDS011;7393;51.446;6.800;2023-09-08T09:34:23;5.97;;;3.70;;
14613;SDS011;7393;51.446;6.800;2023-09-08T09:36:50;4.22;;;3.50;;
14613;SDS011;7393;51.446;6.800;2023-09-08T09:39:17;4.20;;;3.72;;
14613;SDS011;7393;51.446;6.800;2023-09-08T09:41:47;5.35;;;3.05;;
14613;SDS011;7393;51.446;6.800;2023-09-08T09:44:14;10.40;;;4.50;;
14613;SDS011;7393;51.446;6.800;2023-09-08T09:46:44;5.45;;;3.63;;
14613;SDS011;7393;51.446;6.800;2023-09-08T09:49:11;5.88;;;3.72;;
14613;SDS011;7393;51.446;6.800;2023-09-08T09:51:40;6.63;;;4.07;;
14613;SDS011;7393;51.446;6.800;2023-09-08T09:54:08;3.88;;;3.47;;
14613;SDS011;7393;51.446;6.800;2023-09-08T09:56:35;8.60;;;3.80;;
14613;SDS011;7393;51.446;6.800;2023-09-08T09:59:05;4.35;;;3.85;;
14613;SDS011;7393;51.446;6.800;2023-09-08T10:01:34;5.38;;;3.75;;
14613;SDS011;7393;51.446;6.800;2023-09-08T10:04:01;8.68;;;3.60;;
14613;SDS011;7393;51.446;6.800;2023-09-08T10:06:30;6.15;;;3.78;;
14613;SDS011;7393;51.446;6.800;2023-09-08T10:08:58;3.95;;;3.40;;
14613;SDS011;7393;51.446;6.800;2023-09-08T10:11:27;6.38;;;3.83;;
14613;SDS011;7393;51.446;6.800;2023-09-08T10:13:57;8.40;;;3.78;;
14613;SDS011;7393;51.446;6.800;2023-09-08T10:16:27;5.35;;;3.63;;
14613;SDS011;7393;51.446;6.800;2023-09-08T10:18:58;5.05;;;3.78;;
14613;SDS011;7393;51.446;6.800;2023-09-08T10:21:26;6.95;;;3.88;;
14613;SDS011;7393;51.446;6.800;2023-09-08T10:23:57;5.35;;;4.00;;
14613;SDS011;7393;51.446;6.800;2023-09-08T10:26:28;7.05;;;3.88;;
14613;SDS011;7393;51.446;6.800;2023-09-08T10:28:56;7.10;;;4.10;;
14613;SDS011;7393;51.446;6.800;2023-09-08T10:31:24;6.38;;;4.30;;
14613;SDS011;7393;51.446;6.800;2023-09-08T10:33:53;8.98;;;3.95;;
14613;SDS011;7393;51.446;6.800;2023-09-08T10:36:21;5.35;;;3.85;;
14613;SDS011;7393;51.446;6.800;2023-09-08T10:38:48;4.43;;;3.80;;
14613;SDS011;7393;51.446;6.800;2023-09-08T10:44:02;5.18;;;3.90;;
14613;SDS011;7393;51.446;6.800;2023-09-08T10:46:31;4.60;;;3.65;;
14613;SDS011;7393;51.446;6.800;2023-09-08T10:49:03;6.28;;;3.53;;
14613;SDS011;7393;51.446;6.800;2023-09-08T10:51:32;5.15;;;4.13;;
14613;SDS011;7393;51.446;6.800;2023-09-08T10:53:59;6.15;;;4.13;;
14613;SDS011;7393;51.446;6.800;2023-09-08T10:56:27;5.20;;;4.00;;
14613;SDS011;7393;51.446;6.800;2023-09-08T10:59:12;3.63;;;3.33;;
14613;SDS011;7393;51.446;6.800;2023-09-08T11:01:40;4.03;;;3.72;;
14613;SDS011;7393;51.446;6.800;2023-09-08T11:04:07;6.22;;;3.75;;
14613;SDS011;7393;51.446;6.800;2023-09-08T11:06:36;5.00;;;3.47;;
14613;SDS011;7393;51.446;6.800;2023-09-08T11:09:05;4.18;;;3.78;;
14613;SDS011;7393;51.446;6.800;2023-09-08T11:11:33;5.35;;;3.75;;
14613;SDS011;7393;51.446;6.800;2023-09-08T11:14:01;4.47;;;3.97;;
14613;SDS011;7393;51.446;6.800;2023-09-08T11:16:28;5.07;;;3.70;;
14613;SDS011;7393;51.446;6.800;2023-09-08T11:18:59;4.93;;;3.67;;
14613;SDS011;7393;51.446;6.800;2023-09-08T11:21:29;6.80;;;3.83;;
14613;SDS011;7393;51.446;6.800;2023-09-08T11:23:59;7.65;;;4.40;;
14613;SDS011;7393;51.446;6.800;2023-09-08T11:26:27;6.00;;;4.10;;
14613;SDS011;7393;51.446;6.800;2023-09-08T11:28:54;5.20;;;4.07;;
14613;SDS011;7393;51.446;6.800;2023-09-08T11:31:21;4.10;;;3.70;;
14613;SDS011;7393;51.446;6.800;2023-09-08T11:33:48;4.88;;;4.15;;
14613;SDS011;7393;51.446;6.800;2023-09-08T11:36:16;7.63;;;4.30;;
14613;SDS011;7393;51.446;6.800;2023-09-08T11:38:44;3.75;;;3.45;;
14613;SDS011;7393;51.446;6.800;2023-09-08T11:41:11;6.30;;;3.85;;
14613;SDS011;7393;51.446;6.800;2023-09-08T11:43:38;4.20;;;3.75;;
14613;SDS011;7393;51.446;6.800;2023-09-08T11:46:05;4.18;;;3.78;;
14613;SDS011;7393;51.446;6.800;2023-09-08T11:48:32;5.95;;;3.80;;
14613;SDS011;7393;51.446;6.800;2023-09-08T11:51:00;6.18;;;3.67;;
14613;SDS011;7393;51.446;6.800;2023-09-08T11:53:28;5.00;;;3.80;;
14613;SDS011;7393;51.446;6.800;2023-09-08T11:55:58;6.35;;;4.10;;
14613;SDS011;7393;51.446;6.800;2023-09-08T11:58:25;4.88;;;4.18;;
14613;SDS011;7393;51.446;6.800;2023-09-08T12:00:52;4.72;;;3.80;;
14613;SDS011;7393;51.446;6.800;2023-09-08T12:03:19;3.97;;;3.50;;
14613;SDS011;7393;51.446;6.800;2023-09-08T12:05:50;4.28;;;3.88;;
14613;SDS011;7393;51.446;6.800;2023-09-08T12:08:18;4.55;;;4.15;;
14613;SDS011;7393;51.446;6.800;2023-09-08T12:10:46;5.25;;;3.88;;
14613;SDS011;7393;51.446;6.800;2023-09-08T12:13:19;4.82;;;3.88;;
14613;SDS011;7393;51.446;6.800;2023-09-08T12:15:47;4.35;;;3.95;;
14613;SDS011;7393;51.446;6.800;2023-09-08T12:18:14;4.78;;;3.83;;
14613;SDS011;7393;51.446;6.800;2023-09-08T12:20:41;4.30;;;3.90;;
14613;SDS011;7393;51.446;6.800;2023-09-08T12:23:15;4.43;;;3.80;;
14613;SDS011;7393;51.446;6.800;2023-09-08T12:25:47;6.88;;;4.10;;
14613;SDS011;7393;51.446;6.800;2023-09-08T12:28:16;4.72;;;3.97;;
14613;SDS011;7393;51.446;6.800;2023-09-08T12:30:44;6.20;;;4.30;;
14613;SDS011;7393;51.446;6.800;2023-09-08T12:33:11;5.55;;;4.05;;
14613;SDS011;7393;51.446;6.800;2023-09-08T12:35:42;5.53;;;3.90;;
14613;SDS011;7393;51.446;6.800;2023-09-08T12:38:09;5.10;;;4.03;;
14613;SDS011;7393;51.446;6.800;2023-09-08T12:40:36;7.20;;;4.20;;
14613;SDS011;7393;51.446;6.800;2023-09-08T12:43:05;4.18;;;3.70;;
14613;SDS011;7393;51.446;6.800;2023-09-08T12:45:32;5.15;;;3.88;;
14613;SDS011;7393;51.446;6.800;2023-09-08T12:47:59;5.20;;;4.10;;
14613;SDS011;7393;51.446;6.800;2023-09-08T12:50:27;9.25;;;3.80;;
14613;SDS011;7393;51.446;6.800;2023-09-08T12:52:55;5.38;;;4.00;;
14613;SDS011;7393;51.446;6.800;2023-09-08T12:55:22;6.72;;;3.50;;
14613;SDS011;7393;51.446;6.800;2023-09-08T12:57:49;6.45;;;4.57;;
14613;SDS011;7393;51.446;6.800;2023-09-08T13:00:21;4.43;;;3.70;;
14613;SDS011;7393;51.446;6.800;2023-09-08T13:02:48;5.53;;;3.80;;
14613;SDS011;7393;51.446;6.800;2023-09-08T13:05:15;4.10;;;3.67;;
14613;SDS011;7393;51.446;6.800;2023-09-08T13:07:42;4.22;;;3.50;;
14613;SDS011;7393;51.446;6.800;2023-09-08T13:10:09;8.18;;;4.03;;
14613;SDS011;7393;51.446;6.800;2023-09-08T13:12:36;3.88;;;3.58;;
14613;SDS011;7393;51.446;6.800;2023-09-08T13:15:03;3.83;;;3.30;;
14613;SDS011;7393;51.446;6.800;2023-09-08T13:17:32;4.78;;;4.03;;
14613;SDS011;7393;51.446;6.800;2023-09-08T13:19:58;5.15;;;3.42;;
14613;SDS011;7393;51.446;6.800;2023-09-08T13:22:25;4.70;;;4.00;;
14613;SDS011;7393;51.446;6.800;2023-09-08T13:24:52;5.00;;;3.85;;
14613;SDS011;7393;51.446;6.800;2023-09-08T13:27:20;4.25;;;3.85;;
14613;SDS011;7393;51.446;6.800;2023-09-08T13:29:46;4.63;;;4.00;;
14613;SDS011;7393;51.446;6.800;2023-09-08T13:32:13;4.50;;;3.42;;
14613;SDS011;7393;51.446;6.800;2023-09-08T13:34:41;5.32;;;3.63;;
14613;SDS011;7393;51.446;6.800;2023-09-08T13:37:09;5.25;;;4.00;;
14613;SDS011;7393;51.446;6.800;2023-09-08T13:39:36;5.88;;;4.00;;
14613;SDS011;7393;51.446;6.800;2023-09-08T13:42:03;8.20;;;3.83;;
14613;SDS011;7393;51.446;6.800;2023-09-08T13:44:30;4.50;;;4.10;;
14613;SDS011;7393;51.446;6.800;2023-09-08T13:46:57;9.75;;;3.97;;
14613;SDS011;7393;51.446;6.800;2023-09-08T13:49:23;6.10;;;3.83;;
14613;SDS011;7393;51.446;6.800;2023-09-08T13:51:53;5.93;;;4.75;;
14613;SDS011;7393;51.446;6.800;2023-09-08T13:54:20;9.07;;;3.83;;
14613;SDS011;7393;51.446;6.800;2023-09-08T13:56:56;7.38;;;4.70;;
14613;SDS011;7393;51.446;6.800;2023-09-08T13:59:24;6.97;;;4.68;;
14613;SDS011;7393;51.446;6.800;2023-09-08T14:01:51;8.23;;;4.30;;
14613;SDS011;7393;51.446;6.800;2023-09-08T14:04:19;4.35;;;3.95;;
14613;SDS011;7393;51.446;6.800;2023-09-08T14:06:46;7.80;;;4.70;;
14613;SDS011;7393;51.446;6.800;2023-09-08T14:09:15;5.88;;;5.35;;
14613;SDS011;7393;51.446;6.800;2023-09-08T14:11:41;5.28;;;4.30;;
14613;SDS011;7393;51.446;6.800;2023-09-08T14:14:08;4.45;;;3.50;;
14613;SDS011;7393;51.446;6.800;2023-09-08T14:16:35;4.97;;;3.75;;
14613;SDS011;7393;51.446;6.800;2023-09-08T14:19:02;5.28;;;4.22;;
14613;SDS011;7393;51.446;6.800;2023-09-08T14:21:30;4.88;;;4.25;;
14613;SDS011;7393;51.446;6.800;2023-09-08T14:23:57;5.65;;;3.80;;
14613;SDS011;7393;51.446;6.800;2023-09-08T14:26:25;4.60;;;4.20;;
14613;SDS011;7393;51.446;6.800;2023-09-08T14:28:52;5.43;;;4.90;;
14613;SDS011;7393;51.446;6.800;2023-09-08T14:31:19;6.07;;;4.32;;
14613;SDS011;7393;51.446;6.800;2023-09-08T14:33:45;4.97;;;3.75;;
14613;SDS011;7393;51.446;6.800;2023-09-08T14:36:16;6.75;;;4.45;;
14613;SDS011;7393;51.446;6.800;2023-09-08T14:38:43;5.35;;;4.38;;
14613;SDS011;7393;51.446;6.800;2023-09-08T14:41:10;4.95;;;4.07;;
14613;SDS011;7393;51.446;6.800;2023-09-08T14:43:38;6.13;;;4.15;;
14613;SDS011;7393;51.446;6.800;2023-09-08T14:46:05;7.00;;;4.72;;
14613;SDS011;7393;51.446;6.800;2023-09-08T14:48:32;5.10;;;3.97;;
14613;SDS011;7393;51.446;6.800;2023-09-08T14:51:01;4.25;;;3.85;;
14613;SDS011;7393;51.446;6.800;2023-09-08T14:53:28;5.13;;;3.85;;
14613;SDS011;7393;51.446;6.800;2023-09-08T14:55:56;5.75;;;4.15;;
14613;SDS011;7393;51.446;6.800;2023-09-08T14:58:24;4.68;;;4.28;;
14613;SDS011;7393;51.446;6.800;2023-09-08T15:00:58;4.47;;;4.00;;
14613;SDS011;7393;51.446;6.800;2023-09-08T15:03:28;5.32;;;4.00;;
14613;SDS011;7393;51.446;6.800;2023-09-08T15:05:56;6.35;;;4.80;;
14613;SDS011;7393;51.446;6.800;2023-09-08T15:08:23;5.85;;;4.18;;